Terminal Aerodrome Forecast
Issued by NWS

Home | Current Version | Previous Version | Text Only | Print | Product List | Glossary On
Versions: 1 2 3 4 5 6 7 8 9 10 11 12 13 14 15 16 17 18 19 20 21
000
FTUS46 KLOX 261137
TAFOXR
TAF
KOXR 261137Z 2612/2712 VRB05KT 6SM BR SCT006
     FM261700 27008KT P6SM FEW010
     FM262000 27012G22KT P6SM SKC
     FM270300 27009KT P6SM SKC
     FM271100 VRB03KT P6SM SCT006=

USA.gov is the U.S. government's official web portal to all federal, state and local government web resources and services.